»·PEaware :: N1SC KBUR-KLAS

N1SC :: KBUR-KLAS

FLIGHT INFORMATION

Flight Status: Arrived
Operator: Privately registered:
United States
More flights under this callsign
Pilot: Chris C. (10181)
Aircraft: CESSNA 550 CITATION 2/S2/BRAVO
(C550)
More flights by this aircraft type
Origin: KBUR Bob Hope-Burbank
United States
Destination: KLAS McCarran Intl
United States
More flights between these airports :: More routes between these airports
Route: +VNY3 DAG KEPEC6
File this flight plan on PilotEdge
Remarks:
Altitude:
(Current/Filed)
27,000ft
Speed:
(Current/Filed)
270kts
Departed: 17-Jan-18 10:30 AM
Arrived: 17-Jan-18 11:36 AM
Distance/Time
Traveled:
194nm/1:05
Distance/Time
To Go:
Arrived

Flight Plot

Page will automatically refresh every two minutes.

Flight plan parsing failed; only flown route is shown


Map Options




Map Legend


Flown Route
Filed Route
Departure Airport
Arrival Airport
Navaid (VOR, NDB)
Fix

Horizontal Profiles

Position Reports

Time Latitude Longitude Heading Altitude Ground
Speed
17-Jan-18 10:23 34.201192 -118.359680 257 724ft 0kts
17-Jan-18 10:24 34.201191 -118.359683 257 724ft 0kts
17-Jan-18 10:25 34.201191 -118.359686 257 724ft 0kts
17-Jan-18 10:26 34.201190 -118.359688 257 724ft 0kts
17-Jan-18 10:27 34.201190 -118.359691 257 724ft 0kts
17-Jan-18 10:28 34.201189 -118.359694 257 724ft 0kts
17-Jan-18 10:29 34.201189 -118.359696 257 724ft 0kts
17-Jan-18 10:30 34.201188 -118.359699 257 724ft 0kts
17-Jan-18 10:31 34.201188 -118.359702 257 724ft 0kts
17-Jan-18 10:32 34.202414 -118.359487 20 724ft 14kts
17-Jan-18 10:33 34.209923 -118.361026 346 724ft 28kts
17-Jan-18 10:34 34.212012 -118.361258 61 724ft 0kts
17-Jan-18 10:35 34.212003 -118.360398 167 724ft 0kts
17-Jan-18 10:36 34.189165 -118.354983 183 1597ft 133kts
17-Jan-18 10:37 34.154146 -118.386992 223 3795ft 185kts
17-Jan-18 10:38 34.107559 -118.446605 229 4209ft 302kts
17-Jan-18 10:39 34.079440 -118.530762 251 5094ft 243kts
17-Jan-18 10:40 34.115580 -118.579442 342 6599ft 225kts
17-Jan-18 10:41 34.179080 -118.601690 343 8256ft 250kts
17-Jan-18 10:42 34.248227 -118.625340 343 10069ft 259kts
17-Jan-18 10:43 34.316132 -118.648289 343 11860ft 247kts
17-Jan-18 10:44 34.379166 -118.642542 56 13027ft 271kts
17-Jan-18 10:45 34.371540 -118.544177 95 13458ft 303kts
17-Jan-18 10:46 34.388935 -118.450839 54 14954ft 274kts
17-Jan-18 10:47 34.433578 -118.380114 48 16441ft 258kts
17-Jan-18 10:48 34.476753 -118.311153 47 17935ft 253kts
17-Jan-18 10:49 34.518753 -118.244116 46 19423ft 245kts
17-Jan-18 10:50 34.559988 -118.178273 46 20921ft 251kts
17-Jan-18 10:51 34.603717 -118.108202 46 22331ft 269kts
17-Jan-18 10:52 34.635899 -118.022844 79 23549ft 305kts
17-Jan-18 10:53 34.647229 -117.918643 75 24763ft 316kts
17-Jan-18 10:54 34.658968 -117.811333 75 25965ft 324kts
17-Jan-18 10:55 34.679047 -117.705438 65 27017ft 326kts
17-Jan-18 10:56 34.707648 -117.594091 65 27127ft 365kts
17-Jan-18 10:57 34.738726 -117.472174 66 27127ft 387kts
17-Jan-18 10:58 34.765545 -117.366573 66 27126ft 397kts
17-Jan-18 10:59 34.798388 -117.236682 66 27132ft 403kts
17-Jan-18 11:00 34.836509 -117.085095 66 27135ft 400kts
17-Jan-18 11:01 34.863463 -116.977418 66 27130ft 399kts
17-Jan-18 11:02 34.895692 -116.848068 66 27129ft 398kts
17-Jan-18 11:03 34.927600 -116.719348 66 27102ft 394kts
17-Jan-18 11:04 34.959389 -116.594989 59 26227ft 373kts
17-Jan-18 11:05 35.022275 -116.503764 39 24734ft 336kts
17-Jan-18 11:06 35.088532 -116.421083 40 24139ft 353kts
17-Jan-18 11:07 35.158488 -116.333587 40 23891ft 367kts
17-Jan-18 11:08 35.230462 -116.243255 40 22678ft 355kts
17-Jan-18 11:09 35.296841 -116.159837 41 20686ft 331kts
17-Jan-18 11:10 35.359579 -116.080811 41 18702ft 316kts
17-Jan-18 11:11 35.420689 -116.003662 42 17189ft 316kts
17-Jan-18 11:12 35.482003 -115.926039 42 15688ft 315kts
17-Jan-18 11:13 35.542843 -115.848869 42 14192ft 314kts
17-Jan-18 11:14 35.602401 -115.773028 42 13046ft 292kts
17-Jan-18 11:15 35.659935 -115.699673 42 13007ft 301kts
17-Jan-18 11:16 35.717788 -115.625788 42 13009ft 299kts
17-Jan-18 11:17 35.785702 -115.573854 3 13006ft 290kts
17-Jan-18 11:18 35.866447 -115.569608 1 13003ft 290kts
17-Jan-18 11:19 35.946528 -115.560157 18 13011ft 292kts
17-Jan-18 11:20 35.996767 -115.482748 66 12313ft 300kts
17-Jan-18 11:21 36.023977 -115.397420 65 11119ft 252kts
17-Jan-18 11:22 36.025803 -115.305277 92 10265ft 270kts
17-Jan-18 11:23 36.019712 -115.218559 93 9062ft 247kts
17-Jan-18 11:24 36.013632 -115.129979 93 8907ft 253kts
17-Jan-18 11:25 36.008442 -115.050036 93 8005ft 242kts
17-Jan-18 11:26 36.003370 -114.964242 93 7981ft 232kts
17-Jan-18 11:27 35.998419 -114.881925 92 7992ft 245kts
17-Jan-18 11:28 35.993360 -114.800760 93 7988ft 217kts
17-Jan-18 11:29 35.988960 -114.733961 92 8009ft 202kts
17-Jan-18 11:30 35.984543 -114.667778 92 7999ft 184kts
17-Jan-18 11:31 35.999019 -114.609144 28 8004ft 197kts
17-Jan-18 11:32 36.052113 -114.610291 325 8006ft 201kts
17-Jan-18 11:33 36.068523 -114.674548 277 8003ft 205kts
17-Jan-18 11:34 36.074115 -114.742750 273 8001ft 194kts
17-Jan-18 11:35 36.072880 -114.809610 270 7327ft 198kts
17-Jan-18 11:36 36.073188 -114.879552 270 6180ft 204kts
17-Jan-18 11:37 36.072824 -114.943652 270 5038ft 166kts
17-Jan-18 11:38 36.073441 -114.993949 271 4155ft 121kts
17-Jan-18 11:39 36.073358 -115.035489 270 3860ft 120kts
17-Jan-18 11:40 36.073636 -115.076762 270 3188ft 122kts
17-Jan-18 11:41 36.073657 -115.117799 270 2352ft 126kts
17-Jan-18 11:42 36.074177 -115.139699 61 2118ft 20kts

Navigation Log

Ident Type
Flight plan parsing failed, navigation log unavailable